sensor_id;sensor_type;location;lat;lon;timestamp;temperature;humidity
23079;DHT22;11707;50.830;4.364;2023-05-17T00:01:43;10.30;99.90
23079;DHT22;11707;50.830;4.364;2023-05-17T00:04:11;10.30;99.60
23079;DHT22;11707;50.830;4.364;2023-05-17T00:06:37;10.20;99.80
23079;DHT22;11707;50.830;4.364;2023-05-17T00:09:03;10.30;99.40
23079;DHT22;11707;50.830;4.364;2023-05-17T00:11:28;10.30;99.70
23079;DHT22;11707;50.830;4.364;2023-05-17T00:13:54;10.30;98.60
23079;DHT22;11707;50.830;4.364;2023-05-17T00:16:19;10.20;99.90
23079;DHT22;11707;50.830;4.364;2023-05-17T00:18:45;10.10;99.90
23079;DHT22;11707;50.830;4.364;2023-05-17T00:21:11;10.00;99.90
23079;DHT22;11707;50.830;4.364;2023-05-17T00:23:37;10.10;99.90
23079;DHT22;11707;50.830;4.364;2023-05-17T00:26:04;9.90;99.90
23079;DHT22;11707;50.830;4.364;2023-05-17T00:28:30;9.90;99.90
23079;DHT22;11707;50.830;4.364;2023-05-17T00:30:56;9.90;99.90
23079;DHT22;11707;50.830;4.364;2023-05-17T00:33:21;10.10;99.90
23079;DHT22;11707;50.830;4.364;2023-05-17T00:35:49;10.00;99.90
23079;DHT22;11707;50.830;4.364;2023-05-17T00:38:15;10.10;99.90
23079;DHT22;11707;50.830;4.364;2023-05-17T00:40:41;10.10;98.90
23079;DHT22;11707;50.830;4.364;2023-05-17T00:43:09;10.10;98.60
23079;DHT22;11707;50.830;4.364;2023-05-17T00:45:35;10.00;99.80
23079;DHT22;11707;50.830;4.364;2023-05-17T00:48:01;9.90;99.90
23079;DHT22;11707;50.830;4.364;2023-05-17T00:50:27;9.90;99.90
23079;DHT22;11707;50.830;4.364;2023-05-17T00:52:53;9.90;99.90
23079;DHT22;11707;50.830;4.364;2023-05-17T00:55:19;9.70;99.90
23079;DHT22;11707;50.830;4.364;2023-05-17T00:57:45;9.80;99.90
23079;DHT22;11707;50.830;4.364;2023-05-17T01:00:12;9.70;99.90
23079;DHT22;11707;50.830;4.364;2023-05-17T01:02:38;9.70;99.90
23079;DHT22;11707;50.830;4.364;2023-05-17T01:05:04;9.70;99.90
23079;DHT22;11707;50.830;4.364;2023-05-17T01:07:30;9.70;99.90
23079;DHT22;11707;50.830;4.364;2023-05-17T01:09:56;9.70;99.90
23079;DHT22;11707;50.830;4.364;2023-05-17T01:12:47;9.60;99.90
23079;DHT22;11707;50.830;4.364;2023-05-17T01:15:23;9.60;99.90
23079;DHT22;11707;50.830;4.364;2023-05-17T01:18:03;9.60;99.90
23079;DHT22;11707;50.830;4.364;2023-05-17T01:20:52;9.60;99.90
23079;DHT22;11707;50.830;4.364;2023-05-17T01:26:06;9.60;99.90
23079;DHT22;11707;50.830;4.364;2023-05-17T01:28:37;9.60;99.90
23079;DHT22;11707;50.830;4.364;2023-05-17T01:31:04;9.70;99.90
23079;DHT22;11707;50.830;4.364;2023-05-17T01:33:33;9.60;99.90
23079;DHT22;11707;50.830;4.364;2023-05-17T01:36:00;9.60;99.90
23079;DHT22;11707;50.830;4.364;2023-05-17T01:38:25;9.70;99.90
23079;DHT22;11707;50.830;4.364;2023-05-17T01:40:59;9.80;99.90
23079;DHT22;11707;50.830;4.364;2023-05-17T01:46:30;9.80;99.90
23079;DHT22;11707;50.830;4.364;2023-05-17T01:49:51;9.70;99.90
23079;DHT22;11707;50.830;4.364;2023-05-17T01:52:14;9.60;99.90
23079;DHT22;11707;50.830;4.364;2023-05-17T01:54:53;9.70;99.90
23079;DHT22;11707;50.830;4.364;2023-05-17T01:57:24;9.60;99.90
23079;DHT22;11707;50.830;4.364;2023-05-17T01:59:54;9.70;99.90
23079;DHT22;11707;50.830;4.364;2023-05-17T02:02:22;9.70;99.90
23079;DHT22;11707;50.830;4.364;2023-05-17T02:04:48;9.80;99.90
23079;DHT22;11707;50.830;4.364;2023-05-17T02:07:15;9.90;99.90
23079;DHT22;11707;50.830;4.364;2023-05-17T02:09:43;9.80;99.90
23079;DHT22;11707;50.830;4.364;2023-05-17T02:12:10;9.90;99.90
23079;DHT22;11707;50.830;4.364;2023-05-17T02:14:36;10.00;99.90
23079;DHT22;11707;50.830;4.364;2023-05-17T02:17:01;10.00;99.90
23079;DHT22;11707;50.830;4.364;2023-05-17T02:19:32;10.00;99.90
23079;DHT22;11707;50.830;4.364;2023-05-17T02:21:58;9.90;99.90
23079;DHT22;11707;50.830;4.364;2023-05-17T02:24:24;9.90;99.90
23079;DHT22;11707;50.830;4.364;2023-05-17T02:26:50;9.90;99.90
23079;DHT22;11707;50.830;4.364;2023-05-17T02:29:15;10.00;99.90
23079;DHT22;11707;50.830;4.364;2023-05-17T02:31:41;10.10;99.90
23079;DHT22;11707;50.830;4.364;2023-05-17T02:34:07;10.10;99.90
23079;DHT22;11707;50.830;4.364;2023-05-17T02:36:32;10.10;99.90
23079;DHT22;11707;50.830;4.364;2023-05-17T02:38:58;10.20;99.90
23079;DHT22;11707;50.830;4.364;2023-05-17T02:41:24;10.00;99.90
23079;DHT22;11707;50.830;4.364;2023-05-17T02:43:52;9.90;99.90
23079;DHT22;11707;50.830;4.364;2023-05-17T02:46:18;9.90;99.90
23079;DHT22;11707;50.830;4.364;2023-05-17T02:48:44;9.80;99.90
23079;DHT22;11707;50.830;4.364;2023-05-17T02:51:09;9.80;99.90
23079;DHT22;11707;50.830;4.364;2023-05-17T02:53:35;9.80;99.90
23079;DHT22;11707;50.830;4.364;2023-05-17T02:56:04;10.00;99.90
23079;DHT22;11707;50.830;4.364;2023-05-17T02:58:29;9.90;99.90
23079;DHT22;11707;50.830;4.364;2023-05-17T03:00:55;9.90;99.90
23079;DHT22;11707;50.830;4.364;2023-05-17T03:03:21;9.90;99.90
23079;DHT22;11707;50.830;4.364;2023-05-17T03:05:46;9.90;99.90
23079;DHT22;11707;50.830;4.364;2023-05-17T03:08:14;9.90;99.90
23079;DHT22;11707;50.830;4.364;2023-05-17T03:10:40;9.80;99.90
23079;DHT22;11707;50.830;4.364;2023-05-17T03:13:06;9.80;99.90
23079;DHT22;11707;50.830;4.364;2023-05-17T03:15:32;9.90;99.90
23079;DHT22;11707;50.830;4.364;2023-05-17T03:18:02;9.90;99.90
23079;DHT22;11707;50.830;4.364;2023-05-17T03:20:28;9.80;99.90
23079;DHT22;11707;50.830;4.364;2023-05-17T03:22:53;9.80;99.90
23079;DHT22;11707;50.830;4.364;2023-05-17T03:25:21;9.70;99.90
23079;DHT22;11707;50.830;4.364;2023-05-17T03:27:47;9.80;99.90
23079;DHT22;11707;50.830;4.364;2023-05-17T03:30:12;9.70;99.90
23079;DHT22;11707;50.830;4.364;2023-05-17T03:32:38;9.90;99.90
23079;DHT22;11707;50.830;4.364;2023-05-17T03:35:07;9.90;99.90
23079;DHT22;11707;50.830;4.364;2023-05-17T03:37:33;9.90;99.90
23079;DHT22;11707;50.830;4.364;2023-05-17T03:39:58;9.90;99.90
23079;DHT22;11707;50.830;4.364;2023-05-17T03:42:24;9.70;99.90
23079;DHT22;11707;50.830;4.364;2023-05-17T03:44:50;9.50;99.90
23079;DHT22;11707;50.830;4.364;2023-05-17T03:47:16;9.50;99.90
23079;DHT22;11707;50.830;4.364;2023-05-17T03:49:42;9.50;99.90
23079;DHT22;11707;50.830;4.364;2023-05-17T03:52:10;9.50;99.90
23079;DHT22;11707;50.830;4.364;2023-05-17T03:54:36;9.50;99.90
23079;DHT22;11707;50.830;4.364;2023-05-17T03:57:01;9.40;99.90
23079;DHT22;11707;50.830;4.364;2023-05-17T03:59:30;9.40;99.90
23079;DHT22;11707;50.830;4.364;2023-05-17T04:01:59;9.40;99.90
23079;DHT22;11707;50.830;4.364;2023-05-17T04:04:25;9.40;99.90
23079;DHT22;11707;50.830;4.364;2023-05-17T04:06:53;9.50;99.90
23079;DHT22;11707;50.830;4.364;2023-05-17T04:09:19;9.50;99.90
23079;DHT22;11707;50.830;4.364;2023-05-17T04:11:45;9.60;99.90
23079;DHT22;11707;50.830;4.364;2023-05-17T04:14:10;9.50;99.90
23079;DHT22;11707;50.830;4.364;2023-05-17T04:16:39;9.50;99.90
23079;DHT22;11707;50.830;4.364;2023-05-17T04:19:05;9.50;99.90
23079;DHT22;11707;50.830;4.364;2023-05-17T04:21:30;9.60;99.90
23079;DHT22;11707;50.830;4.364;2023-05-17T04:23:56;9.50;99.90
23079;DHT22;11707;50.830;4.364;2023-05-17T04:26:22;9.40;99.90
23079;DHT22;11707;50.830;4.364;2023-05-17T04:28:51;9.50;99.90
23079;DHT22;11707;50.830;4.364;2023-05-17T04:31:16;9.50;99.90
23079;DHT22;11707;50.830;4.364;2023-05-17T04:33:42;9.50;99.90
23079;DHT22;11707;50.830;4.364;2023-05-17T04:36:08;9.60;99.90
23079;DHT22;11707;50.830;4.364;2023-05-17T04:38:36;9.60;99.90
23079;DHT22;11707;50.830;4.364;2023-05-17T04:41:05;9.60;99.90
23079;DHT22;11707;50.830;4.364;2023-05-17T04:43:34;9.60;99.90
23079;DHT22;11707;50.830;4.364;2023-05-17T04:46:00;9.60;99.90
23079;DHT22;11707;50.830;4.364;2023-05-17T04:48:30;9.50;99.90
23079;DHT22;11707;50.830;4.364;2023-05-17T04:51:04;9.70;99.90
23079;DHT22;11707;50.830;4.364;2023-05-17T04:53:33;9.80;99.90
23079;DHT22;11707;50.830;4.364;2023-05-17T04:55:58;10.00;99.90
23079;DHT22;11707;50.830;4.364;2023-05-17T04:58:24;10.10;99.90
23079;DHT22;11707;50.830;4.364;2023-05-17T05:00:51;10.00;99.90
23079;DHT22;11707;50.830;4.364;2023-05-17T05:03:17;10.00;99.90
23079;DHT22;11707;50.830;4.364;2023-05-17T05:05:43;10.10;99.90
23079;DHT22;11707;50.830;4.364;2023-05-17T05:08:09;10.20;99.90
23079;DHT22;11707;50.830;4.364;2023-05-17T05:10:35;10.20;99.90
23079;DHT22;11707;50.830;4.364;2023-05-17T05:13:01;10.20;99.90
23079;DHT22;11707;50.830;4.364;2023-05-17T05:15:26;10.20;99.90
23079;DHT22;11707;50.830;4.364;2023-05-17T05:17:52;10.10;99.90
23079;DHT22;11707;50.830;4.364;2023-05-17T05:20:22;10.10;99.90
23079;DHT22;11707;50.830;4.364;2023-05-17T05:22:48;10.10;99.90
23079;DHT22;11707;50.830;4.364;2023-05-17T05:25:14;10.20;99.90
23079;DHT22;11707;50.830;4.364;2023-05-17T05:27:41;10.20;99.90
23079;DHT22;11707;50.830;4.364;2023-05-17T05:30:07;10.20;99.90
23079;DHT22;11707;50.830;4.364;2023-05-17T05:32:33;10.30;99.90
23079;DHT22;11707;50.830;4.364;2023-05-17T05:35:01;10.40;99.90
23079;DHT22;11707;50.830;4.364;2023-05-17T05:37:27;10.60;99.90
23079;DHT22;11707;50.830;4.364;2023-05-17T05:39:53;10.50;99.90
23079;DHT22;11707;50.830;4.364;2023-05-17T05:42:19;10.40;99.90
23079;DHT22;11707;50.830;4.364;2023-05-17T05:44:47;10.40;99.90
23079;DHT22;11707;50.830;4.364;2023-05-17T05:47:13;10.50;99.90
23079;DHT22;11707;50.830;4.364;2023-05-17T05:49:39;10.40;99.90
23079;DHT22;11707;50.830;4.364;2023-05-17T05:52:07;10.40;99.90
23079;DHT22;11707;50.830;4.364;2023-05-17T05:54:32;10.50;99.90
23079;DHT22;11707;50.830;4.364;2023-05-17T05:56:58;10.60;99.90
23079;DHT22;11707;50.830;4.364;2023-05-17T05:59:25;10.60;99.90
23079;DHT22;11707;50.830;4.364;2023-05-17T06:01:56;10.70;99.90
23079;DHT22;11707;50.830;4.364;2023-05-17T06:04:23;10.80;99.90
23079;DHT22;11707;50.830;4.364;2023-05-17T06:06:53;10.80;99.90
23079;DHT22;11707;50.830;4.364;2023-05-17T06:09:19;10.70;99.90
23079;DHT22;11707;50.830;4.364;2023-05-17T06:11:45;10.70;99.90
23079;DHT22;11707;50.830;4.364;2023-05-17T06:14:11;10.70;99.90
23079;DHT22;11707;50.830;4.364;2023-05-17T06:16:36;10.90;99.90
23079;DHT22;11707;50.830;4.364;2023-05-17T06:19:03;11.10;99.80
23079;DHT22;11707;50.830;4.364;2023-05-17T06:21:31;11.20;98.60
23079;DHT22;11707;50.830;4.364;2023-05-17T06:23:56;11.40;97.10
23079;DHT22;11707;50.830;4.364;2023-05-17T06:26:22;11.30;96.10
23079;DHT22;11707;50.830;4.364;2023-05-17T06:28:48;11.30;98.40
23079;DHT22;11707;50.830;4.364;2023-05-17T06:31:14;11.30;97.20
23079;DHT22;11707;50.830;4.364;2023-05-17T06:33:42;11.50;97.10
23079;DHT22;11707;50.830;4.364;2023-05-17T06:36:08;11.60;94.70
23079;DHT22;11707;50.830;4.364;2023-05-17T06:38:33;11.70;92.10
23079;DHT22;11707;50.830;4.364;2023-05-17T06:40:59;11.80;90.30
23079;DHT22;11707;50.830;4.364;2023-05-17T06:43:25;11.90;89.50
23079;DHT22;11707;50.830;4.364;2023-05-17T06:45:51;12.00;90.50
23079;DHT22;11707;50.830;4.364;2023-05-17T06:48:19;12.00;85.30
23079;DHT22;11707;50.830;4.364;2023-05-17T06:50:45;12.20;80.90
23079;DHT22;11707;50.830;4.364;2023-05-17T06:53:11;12.20;75.30
23079;DHT22;11707;50.830;4.364;2023-05-17T06:55:36;12.10;78.10
23079;DHT22;11707;50.830;4.364;2023-05-17T06:58:02;12.20;80.80
23079;DHT22;11707;50.830;4.364;2023-05-17T07:00:28;12.30;77.10
23079;DHT22;11707;50.830;4.364;2023-05-17T07:02:53;12.30;73.90
23079;DHT22;11707;50.830;4.364;2023-05-17T07:05:20;12.40;69.30
23079;DHT22;11707;50.830;4.364;2023-05-17T07:07:46;12.40;68.70
23079;DHT22;11707;50.830;4.364;2023-05-17T07:10:12;12.50;63.30
23079;DHT22;11707;50.830;4.364;2023-05-17T07:12:37;12.60;62.60
23079;DHT22;11707;50.830;4.364;2023-05-17T07:15:06;12.90;59.20
23079;DHT22;11707;50.830;4.364;2023-05-17T07:17:31;12.90;43.00
23079;DHT22;11707;50.830;4.364;2023-05-17T07:19:57;12.80;41.90
23079;DHT22;11707;50.830;4.364;2023-05-17T07:22:23;12.70;49.10
23079;DHT22;11707;50.830;4.364;2023-05-17T07:24:51;12.80;54.70
23079;DHT22;11707;50.830;4.364;2023-05-17T07:27:17;13.00;48.30
23079;DHT22;11707;50.830;4.364;2023-05-17T07:29:43;13.10;40.30
23079;DHT22;11707;50.830;4.364;2023-05-17T07:32:08;12.90;44.50
23079;DHT22;11707;50.830;4.364;2023-05-17T07:34:35;13.10;44.70
23079;DHT22;11707;50.830;4.364;2023-05-17T07:37:01;13.10;33.70
23079;DHT22;11707;50.830;4.364;2023-05-17T07:39:27;13.20;35.70
23079;DHT22;11707;50.830;4.364;2023-05-17T07:41:53;13.50;20.20
23079;DHT22;11707;50.830;4.364;2023-05-17T07:44:19;13.60;1.90
23079;DHT22;11707;50.830;4.364;2023-05-17T07:46:46;13.50;1.00
23079;DHT22;11707;50.830;4.364;2023-05-17T07:49:13;13.40;1.00
23079;DHT22;11707;50.830;4.364;2023-05-17T07:51:39;13.40;8.20
23079;DHT22;11707;50.830;4.364;2023-05-17T07:54:07;13.20;12.50
23079;DHT22;11707;50.830;4.364;2023-05-17T07:56:33;13.30;13.60
23079;DHT22;11707;50.830;4.364;2023-05-17T07:59:02;13.50;1.00
23079;DHT22;11707;50.830;4.364;2023-05-17T08:01:30;13.80;1.00
23079;DHT22;11707;50.830;4.364;2023-05-17T08:03:56;13.90;1.00
23079;DHT22;11707;50.830;4.364;2023-05-17T08:06:22;14.00;1.00
23079;DHT22;11707;50.830;4.364;2023-05-17T08:08:47;14.10;1.00
23079;DHT22;11707;50.830;4.364;2023-05-17T08:11:15;14.20;1.00
23079;DHT22;11707;50.830;4.364;2023-05-17T08:13:42;14.10;1.00
23079;DHT22;11707;50.830;4.364;2023-05-17T08:16:08;14.40;1.00
23079;DHT22;11707;50.830;4.364;2023-05-17T08:18:35;14.60;1.00
23079;DHT22;11707;50.830;4.364;2023-05-17T08:21:01;14.60;99.90
23079;DHT22;11707;50.830;4.364;2023-05-17T08:23:27;14.60;1.00
23079;DHT22;11707;50.830;4.364;2023-05-17T08:25:52;14.30;99.90
23079;DHT22;11707;50.830;4.364;2023-05-17T08:28:18;14.10;99.90
23079;DHT22;11707;50.830;4.364;2023-05-17T08:30:45;14.20;99.90
23079;DHT22;11707;50.830;4.364;2023-05-17T08:33:14;14.20;99.90
23079;DHT22;11707;50.830;4.364;2023-05-17T08:35:40;14.20;99.90
23079;DHT22;11707;50.830;4.364;2023-05-17T08:38:08;14.10;99.90
23079;DHT22;11707;50.830;4.364;2023-05-17T08:40:34;14.30;99.90
23079;DHT22;11707;50.830;4.364;2023-05-17T08:43:01;14.30;99.90
23079;DHT22;11707;50.830;4.364;2023-05-17T08:45:27;14.20;99.90
23079;DHT22;11707;50.830;4.364;2023-05-17T08:47:55;14.40;99.90
23079;DHT22;11707;50.830;4.364;2023-05-17T08:50:21;14.60;99.90
23079;DHT22;11707;50.830;4.364;2023-05-17T08:52:48;14.50;99.90
23079;DHT22;11707;50.830;4.364;2023-05-17T08:55:14;14.40;99.90
23079;DHT22;11707;50.830;4.364;2023-05-17T08:57:41;14.40;99.90
23079;DHT22;11707;50.830;4.364;2023-05-17T09:00:08;14.40;99.90
23079;DHT22;11707;50.830;4.364;2023-05-17T09:02:37;14.20;99.90
23079;DHT22;11707;50.830;4.364;2023-05-17T09:05:05;14.30;99.90
23079;DHT22;11707;50.830;4.364;2023-05-17T09:07:33;14.40;99.90
23079;DHT22;11707;50.830;4.364;2023-05-17T09:09:59;14.30;99.90
23079;DHT22;11707;50.830;4.364;2023-05-17T09:12:27;14.40;99.90
23079;DHT22;11707;50.830;4.364;2023-05-17T09:15:14;14.50;99.90
23079;DHT22;11707;50.830;4.364;2023-05-17T09:17:40;14.80;19.20
23079;DHT22;11707;50.830;4.364;2023-05-17T09:20:09;14.80;1.00
23079;DHT22;11707;50.830;4.364;2023-05-17T09:22:35;14.90;1.00
23079;DHT22;11707;50.830;4.364;2023-05-17T09:25:02;15.20;99.90
23079;DHT22;11707;50.830;4.364;2023-05-17T09:27:30;15.40;99.90
23079;DHT22;11707;50.830;4.364;2023-05-17T09:29:59;15.40;1.00
23079;DHT22;11707;50.830;4.364;2023-05-17T09:32:25;15.40;99.90
23079;DHT22;11707;50.830;4.364;2023-05-17T09:34:52;15.30;99.90
23079;DHT22;11707;50.830;4.364;2023-05-17T09:37:21;15.40;99.90
23079;DHT22;11707;50.830;4.364;2023-05-17T09:39:50;15.50;1.00
23079;DHT22;11707;50.830;4.364;2023-05-17T09:42:17;15.50;99.90
23079;DHT22;11707;50.830;4.364;2023-05-17T09:44:51;15.60;99.90
23079;DHT22;11707;50.830;4.364;2023-05-17T09:47:28;15.40;1.00
23079;DHT22;11707;50.830;4.364;2023-05-17T09:49:58;15.40;99.90
23079;DHT22;11707;50.830;4.364;2023-05-17T09:52:25;15.60;99.90
23079;DHT22;11707;50.830;4.364;2023-05-17T09:54:57;15.50;1.00
23079;DHT22;11707;50.830;4.364;2023-05-17T09:57:27;15.60;91.80
23079;DHT22;11707;50.830;4.364;2023-05-17T09:59:54;15.80;99.90
23079;DHT22;11707;50.830;4.364;2023-05-17T10:02:26;16.10;42.70
23079;DHT22;11707;50.830;4.364;2023-05-17T10:04:55;15.80;99.90
23079;DHT22;11707;50.830;4.364;2023-05-17T10:07:24;15.50;99.90
23079;DHT22;11707;50.830;4.364;2023-05-17T10:09:51;15.50;1.00
23079;DHT22;11707;50.830;4.364;2023-05-17T10:12:20;15.40;1.00
23079;DHT22;11707;50.830;4.364;2023-05-17T10:14:47;15.40;99.90
23079;DHT22;11707;50.830;4.364;2023-05-17T10:17:13;15.60;99.90
23079;DHT22;11707;50.830;4.364;2023-05-17T10:19:42;15.50;99.90
23079;DHT22;11707;50.830;4.364;2023-05-17T10:22:09;15.40;99.90
23079;DHT22;11707;50.830;4.364;2023-05-17T10:24:36;15.40;99.90
23079;DHT22;11707;50.830;4.364;2023-05-17T10:27:02;15.30;99.90
23079;DHT22;11707;50.830;4.364;2023-05-17T10:29:29;15.40;99.90
23079;DHT22;11707;50.830;4.364;2023-05-17T10:31:57;15.40;99.90
23079;DHT22;11707;50.830;4.364;2023-05-17T10:34:26;15.40;99.90
23079;DHT22;11707;50.830;4.364;2023-05-17T10:36:53;15.60;99.90
23079;DHT22;11707;50.830;4.364;2023-05-17T10:39:20;15.60;67.10
23079;DHT22;11707;50.830;4.364;2023-05-17T10:41:50;15.70;99.90
23079;DHT22;11707;50.830;4.364;2023-05-17T10:44:16;15.80;99.90
23079;DHT22;11707;50.830;4.364;2023-05-17T10:46:56;16.10;99.90
23079;DHT22;11707;50.830;4.364;2023-05-17T10:49:29;16.10;99.90
23079;DHT22;11707;50.830;4.364;2023-05-17T10:51:57;16.10;99.90
23079;DHT22;11707;50.830;4.364;2023-05-17T10:54:43;16.10;99.90
23079;DHT22;11707;50.830;4.364;2023-05-17T10:57:20;16.40;1.00
23079;DHT22;11707;50.830;4.364;2023-05-17T11:00:01;16.50;99.90
23079;DHT22;11707;50.830;4.364;2023-05-17T11:02:30;16.70;1.00
23079;DHT22;11707;50.830;4.364;2023-05-17T11:04:56;16.50;1.00
23079;DHT22;11707;50.830;4.364;2023-05-17T11:07:26;16.60;1.00
23079;DHT22;11707;50.830;4.364;2023-05-17T11:12:38;16.90;99.90
23079;DHT22;11707;50.830;4.364;2023-05-17T11:15:07;16.90;99.90
23079;DHT22;11707;50.830;4.364;2023-05-17T11:17:47;17.00;99.90
23079;DHT22;11707;50.830;4.364;2023-05-17T11:22:55;16.80;99.90
23079;DHT22;11707;50.830;4.364;2023-05-17T11:25:30;16.90;99.90
23079;DHT22;11707;50.830;4.364;2023-05-17T11:27:57;17.00;99.90
23079;DHT22;11707;50.830;4.364;2023-05-17T11:30:27;16.90;99.90
23079;DHT22;11707;50.830;4.364;2023-05-17T11:33:04;16.80;99.90
23079;DHT22;11707;50.830;4.364;2023-05-17T11:35:37;16.60;99.90
23079;DHT22;11707;50.830;4.364;2023-05-17T11:38:26;16.80;99.90
23079;DHT22;11707;50.830;4.364;2023-05-17T11:40:55;17.00;99.90
23079;DHT22;11707;50.830;4.364;2023-05-17T11:43:23;17.10;99.90
23079;DHT22;11707;50.830;4.364;2023-05-17T11:45:54;17.00;99.90
23079;DHT22;11707;50.830;4.364;2023-05-17T11:48:25;16.90;99.90
23079;DHT22;11707;50.830;4.364;2023-05-17T11:50:52;17.00;99.90
23079;DHT22;11707;50.830;4.364;2023-05-17T11:53:19;17.20;99.90
23079;DHT22;11707;50.830;4.364;2023-05-17T11:55:51;17.20;99.90
23079;DHT22;11707;50.830;4.364;2023-05-17T11:58:19;17.10;99.90
23079;DHT22;11707;50.830;4.364;2023-05-17T12:00:52;16.80;99.90
23079;DHT22;11707;50.830;4.364;2023-05-17T12:03:26;16.80;99.90
23079;DHT22;11707;50.830;4.364;2023-05-17T12:06:06;16.80;99.90
23079;DHT22;11707;50.830;4.364;2023-05-17T12:08:33;16.80;99.90
23079;DHT22;11707;50.830;4.364;2023-05-17T12:11:01;16.80;99.90
23079;DHT22;11707;50.830;4.364;2023-05-17T12:13:29;17.00;99.90
23079;DHT22;11707;50.830;4.364;2023-05-17T12:16:08;17.20;99.90
23079;DHT22;11707;50.830;4.364;2023-05-17T12:18:40;17.30;99.90
23079;DHT22;11707;50.830;4.364;2023-05-17T12:21:08;17.20;99.90
23079;DHT22;11707;50.830;4.364;2023-05-17T12:23:37;17.20;99.90
23079;DHT22;11707;50.830;4.364;2023-05-17T12:26:15;17.20;99.90
23079;DHT22;11707;50.830;4.364;2023-05-17T12:28:57;17.20;99.90
23079;DHT22;11707;50.830;4.364;2023-05-17T12:33:52;17.30;99.90
23079;DHT22;11707;50.830;4.364;2023-05-17T12:36:19;17.50;99.90
23079;DHT22;11707;50.830;4.364;2023-05-17T12:38:45;17.70;99.90
23079;DHT22;11707;50.830;4.364;2023-05-17T12:41:14;17.40;91.80
23079;DHT22;11707;50.830;4.364;2023-05-17T12:43:45;17.10;99.90
23079;DHT22;11707;50.830;4.364;2023-05-17T12:46:22;17.90;93.90
23079;DHT22;11707;50.830;4.364;2023-05-17T12:48:50;19.50;14.40
23079;DHT22;11707;50.830;4.364;2023-05-17T12:51:20;19.10;1.00
23079;DHT22;11707;50.830;4.364;2023-05-17T12:53:50;18.30;1.00
23079;DHT22;11707;50.830;4.364;2023-05-17T12:56:20;18.40;1.00
23079;DHT22;11707;50.830;4.364;2023-05-17T12:59:09;19.90;1.00
23079;DHT22;11707;50.830;4.364;2023-05-17T13:01:53;21.00;1.00
23079;DHT22;11707;50.830;4.364;2023-05-17T13:04:29;20.30;1.00
23079;DHT22;11707;50.830;4.364;2023-05-17T13:07:05;19.00;1.00
23079;DHT22;11707;50.830;4.364;2023-05-17T13:09:32;19.30;1.00
23079;DHT22;11707;50.830;4.364;2023-05-17T13:12:00;19.80;1.00
23079;DHT22;11707;50.830;4.364;2023-05-17T13:16:58;20.90;99.90
23079;DHT22;11707;50.830;4.364;2023-05-17T13:19:24;20.90;99.90
23079;DHT22;11707;50.830;4.364;2023-05-17T13:21:50;21.80;99.90
23079;DHT22;11707;50.830;4.364;2023-05-17T13:24:16;23.10;99.90
23079;DHT22;11707;50.830;4.364;2023-05-17T13:26:41;23.30;99.90
23079;DHT22;11707;50.830;4.364;2023-05-17T13:29:09;22.30;99.90
23079;DHT22;11707;50.830;4.364;2023-05-17T13:31:37;21.20;99.90
23079;DHT22;11707;50.830;4.364;2023-05-17T13:34:03;20.50;99.90
23079;DHT22;11707;50.830;4.364;2023-05-17T13:36:31;20.60;99.90
23079;DHT22;11707;50.830;4.364;2023-05-17T13:38:56;20.80;99.90
23079;DHT22;11707;50.830;4.364;2023-05-17T13:41:24;20.60;99.90
23079;DHT22;11707;50.830;4.364;2023-05-17T13:43:52;20.70;99.90
23079;DHT22;11707;50.830;4.364;2023-05-17T13:46:18;19.90;99.90
23079;DHT22;11707;50.830;4.364;2023-05-17T13:48:43;20.30;99.90
23079;DHT22;11707;50.830;4.364;2023-05-17T13:51:09;20.80;99.90
23079;DHT22;11707;50.830;4.364;2023-05-17T13:53:37;20.40;99.90
23079;DHT22;11707;50.830;4.364;2023-05-17T13:56:03;20.00;99.90
23079;DHT22;11707;50.830;4.364;2023-05-17T13:58:29;20.40;99.90
23079;DHT22;11707;50.830;4.364;2023-05-17T14:00:55;20.10;99.90
23079;DHT22;11707;50.830;4.364;2023-05-17T14:03:21;19.20;99.90
23079;DHT22;11707;50.830;4.364;2023-05-17T14:05:46;18.60;99.90
23079;DHT22;11707;50.830;4.364;2023-05-17T14:08:15;19.30;99.90
23079;DHT22;11707;50.830;4.364;2023-05-17T14:10:41;19.30;99.90
23079;DHT22;11707;50.830;4.364;2023-05-17T14:13:07;19.80;99.90
23079;DHT22;11707;50.830;4.364;2023-05-17T14:15:33;20.70;99.90
23079;DHT22;11707;50.830;4.364;2023-05-17T14:18:03;20.90;99.90
23079;DHT22;11707;50.830;4.364;2023-05-17T14:20:31;20.20;99.90
23079;DHT22;11707;50.830;4.364;2023-05-17T14:22:58;20.50;99.90
23079;DHT22;11707;50.830;4.364;2023-05-17T14:25:24;19.70;99.90
23079;DHT22;11707;50.830;4.364;2023-05-17T14:27:52;19.50;99.90
23079;DHT22;11707;50.830;4.364;2023-05-17T14:30:18;19.30;99.90
23079;DHT22;11707;50.830;4.364;2023-05-17T14:32:46;18.70;99.90
23079;DHT22;11707;50.830;4.364;2023-05-17T14:35:13;18.20;99.90
23079;DHT22;11707;50.830;4.364;2023-05-17T14:37:39;18.00;99.90
23079;DHT22;11707;50.830;4.364;2023-05-17T14:40:05;18.00;99.90
23079;DHT22;11707;50.830;4.364;2023-05-17T14:42:31;19.20;99.90
23079;DHT22;11707;50.830;4.364;2023-05-17T14:44:59;19.40;99.90
23079;DHT22;11707;50.830;4.364;2023-05-17T14:47:25;18.90;99.90
23079;DHT22;11707;50.830;4.364;2023-05-17T14:49:51;18.70;99.90
23079;DHT22;11707;50.830;4.364;2023-05-17T14:52:17;18.30;99.90
23079;DHT22;11707;50.830;4.364;2023-05-17T14:54:43;17.70;99.90
23079;DHT22;11707;50.830;4.364;2023-05-17T14:57:09;18.10;99.90
23079;DHT22;11707;50.830;4.364;2023-05-17T14:59:36;19.10;99.90
23079;DHT22;11707;50.830;4.364;2023-05-17T15:02:03;19.20;99.90
23079;DHT22;11707;50.830;4.364;2023-05-17T15:04:34;19.30;99.90
23079;DHT22;11707;50.830;4.364;2023-05-17T15:07:00;20.00;99.90
23079;DHT22;11707;50.830;4.364;2023-05-17T15:09:28;20.30;99.90
23079;DHT22;11707;50.830;4.364;2023-05-17T15:11:55;19.80;99.90
23079;DHT22;11707;50.830;4.364;2023-05-17T15:14:21;19.10;99.90
23079;DHT22;11707;50.830;4.364;2023-05-17T15:16:49;18.70;99.90
23079;DHT22;11707;50.830;4.364;2023-05-17T15:19:16;18.60;99.90
23079;DHT22;11707;50.830;4.364;2023-05-17T15:21:43;18.70;99.90
23079;DHT22;11707;50.830;4.364;2023-05-17T15:24:10;18.50;99.90
23079;DHT22;11707;50.830;4.364;2023-05-17T15:26:36;18.00;99.90
23079;DHT22;11707;50.830;4.364;2023-05-17T15:29:02;17.60;99.90
23079;DHT22;11707;50.830;4.364;2023-05-17T15:31:28;17.10;99.90
23079;DHT22;11707;50.830;4.364;2023-05-17T15:33:55;16.90;99.90
23079;DHT22;11707;50.830;4.364;2023-05-17T15:36:20;16.90;99.90
23079;DHT22;11707;50.830;4.364;2023-05-17T15:38:46;16.90;99.90
23079;DHT22;11707;50.830;4.364;2023-05-17T15:41:18;16.80;99.90
23079;DHT22;11707;50.830;4.364;2023-05-17T15:43:46;16.70;1.00
23079;DHT22;11707;50.830;4.364;2023-05-17T15:46:12;16.70;1.00
23079;DHT22;11707;50.830;4.364;2023-05-17T15:48:38;16.70;1.00
23079;DHT22;11707;50.830;4.364;2023-05-17T15:51:05;16.70;1.00
23079;DHT22;11707;50.830;4.364;2023-05-17T15:53:34;16.60;1.00
23079;DHT22;11707;50.830;4.364;2023-05-17T15:56:00;16.60;1.00